Time;durP1;ratioP1;P1;durP2;ratioP2;P2;SDS_P1;SDS_P2;PMS_P1;PMS_P2;Temp;Humidity;BMP_temperature;BMP_pressure;BME280_temperature;BME280_humidity;BME280_pressure;Samples;Min_cycle;Max_cycle;Signal;HPM_P1;HPM_P2
2021/05/10 00:00:14;;;;;;;8.03;5.00;;;;;;;4.07;78.57;101529.10;1778730;79;21231;-76
2021/05/10 00:02:42;;;;;;;8.73;6.05;;;;;;;4.03;78.60;101529.17;1784637;79;21187;-78
2021/05/10 00:05:11;;;;;;;8.48;5.90;;;;;;;3.97;78.66;101526.77;1773118;79;21647;-77
2021/05/10 00:07:38;;;;;;;8.30;5.53;;;;;;;3.93;78.74;101532.13;1785528;79;21198;-77
2021/05/10 00:10:10;;;;;;;11.73;6.00;;;;;;;3.90;78.81;101526.71;1810208;78;21905;-76
2021/05/10 00:12:37;;;;;;;9.65;6.53;;;;;;;3.88;78.84;101529.22;1805744;78;21541;-75
2021/05/10 00:15:07;;;;;;;11.18;6.25;;;;;;;3.85;78.90;101523.83;1803717;78;21164;-75
2021/05/10 00:17:35;;;;;;;8.30;5.72;;;;;;;3.85;78.92;101529.13;1786472;79;21168;-75
2021/05/10 00:20:04;;;;;;;8.65;5.87;;;;;;;3.83;78.91;101523.70;1778990;80;21630;-75
2021/05/10 00:22:31;;;;;;;8.33;5.83;;;;;;;3.83;78.87;101523.19;1779340;78;21203;-74
2021/05/10 00:24:59;;;;;;;7.05;5.37;;;;;;;3.82;78.82;101524.69;1767773;78;22291;-76
2021/05/10 00:27:27;;;;;;;7.30;5.60;;;;;;;3.80;78.85;101522.24;1791875;78;21993;-75
2021/05/10 00:29:57;;;;;;;9.43;6.10;;;;;;;3.82;78.91;101522.05;1808696;77;21173;-75
2021/05/10 00:32:25;;;;;;;10.15;6.20;;;;;;;3.79;78.98;101525.91;1779989;78;21265;-76
2021/05/10 00:34:55;;;;;;;7.65;5.37;;;;;;;3.79;79.03;101527.23;1802226;78;21447;-75
2021/05/10 00:37:23;;;;;;;7.92;5.30;;;;;;;3.78;79.02;101530.85;1807947;78;21722;-75
2021/05/10 00:39:51;;;;;;;6.40;4.55;;;;;;;3.70;79.02;101532.31;1771707;78;21777;-75
2021/05/10 00:42:19;;;;;;;6.80;5.10;;;;;;;3.56;79.20;101530.03;1811735;77;21271;-76
2021/05/10 00:44:47;;;;;;;7.78;5.75;;;;;;;3.44;79.47;101538.93;1808873;77;21970;-76
2021/05/10 00:47:15;;;;;;;10.03;6.17;;;;;;;3.43;79.68;101540.45;1800056;77;21228;-75
2021/05/10 00:49:43;;;;;;;9.48;6.22;;;;;;;3.45;79.83;101544.52;1799550;77;21198;-75
2021/05/10 00:52:11;;;;;;;8.35;5.97;;;;;;;3.47;79.91;101539.06;1792486;78;21175;-74
2021/05/10 00:54:39;;;;;;;8.80;6.30;;;;;;;3.47;79.95;101535.92;1778665;78;21221;-75
2021/05/10 00:57:06;;;;;;;8.78;5.47;;;;;;;3.44;80.01;101534.97;1783243;79;21161;-75
2021/05/10 00:59:34;;;;;;;9.80;6.72;;;;;;;3.41;80.22;101537.98;1783746;80;21205;-75
2021/05/10 01:02:03;;;;;;;9.35;7.08;;;;;;;3.37;80.49;101539.36;1764685;80;21199;-76
2021/05/10 01:04:31;;;;;;;8.30;6.30;;;;;;;3.38;80.62;101540.98;1796600;78;21710;-77
2021/05/10 01:06:58;;;;;;;11.00;6.97;;;;;;;3.42;80.74;101542.75;1800049;78;21163;-75
2021/05/10 01:09:26;;;;;;;8.75;6.42;;;;;;;3.42;80.88;101541.44;1815040;78;21222;-77
2021/05/10 01:11:54;;;;;;;9.50;6.67;;;;;;;3.42;81.12;101544.92;1783614;79;21372;-76
2021/05/10 01:14:22;;;;;;;10.32;6.90;;;;;;;3.42;81.22;101546.23;1785066;79;21196;-75
2021/05/10 01:16:52;;;;;;;10.15;6.85;;;;;;;3.43;81.35;101551.83;1786320;78;21209;-75
2021/05/10 01:19:20;;;;;;;9.95;6.75;;;;;;;3.48;81.50;101551.26;1799524;78;21617;-75
2021/05/10 01:21:48;;;;;;;11.00;6.97;;;;;;;3.51;81.59;101546.93;1745677;78;21178;-76
2021/05/10 01:24:17;;;;;;;10.82;7.00;;;;;;;3.53;81.65;101552.86;1780822;80;21366;-76
2021/05/10 01:26:45;;;;;;;10.35;7.10;;;;;;;3.56;81.64;101548.52;1804612;77;21197;-76
2021/05/10 01:29:13;;;;;;;11.97;8.55;;;;;;;3.58;81.65;101556.25;1797984;78;21169;-78
2021/05/10 01:31:41;;;;;;;11.00;7.72;;;;;;;3.60;81.70;101548.97;1763373;78;21248;-79
2021/05/10 01:34:09;;;;;;;11.65;7.00;;;;;;;3.63;81.75;101552.56;1788219;79;21171;-77
2021/05/10 01:36:37;;;;;;;12.58;8.68;;;;;;;3.69;81.82;101549.17;1799578;79;21134;-76
2021/05/10 01:39:05;;;;;;;12.30;7.25;;;;;;;3.71;81.88;101555.08;1769111;79;21111;-77
2021/05/10 01:41:34;;;;;;;9.90;6.50;;;;;;;3.74;81.86;101549.42;1801652;79;21148;-77
2021/05/10 01:44:02;;;;;;;9.23;6.60;;;;;;;3.72;81.78;101559.37;1797100;79;21192;-77
2021/05/10 01:46:31;;;;;;;10.35;6.67;;;;;;;3.66;81.75;101554.83;1764950;80;21658;-77
2021/05/10 01:48:59;;;;;;;9.30;6.80;;;;;;;3.60;81.76;101564.81;1775959;80;21205;-76
2021/05/10 01:51:26;;;;;;;9.55;6.85;;;;;;;3.58;81.83;101566.31;1798488;79;21188;-77
2021/05/10 01:53:54;;;;;;;8.18;6.60;;;;;;;3.57;81.87;101573.92;1794815;79;21200;-74
2021/05/10 01:56:22;;;;;;;9.63;7.47;;;;;;;3.58;81.91;101572.91;1810143;77;21783;-74
2021/05/10 01:58:53;;;;;;;9.48;7.17;;;;;;;3.59;81.94;101580.36;1780851;80;21587;-76
2021/05/10 02:01:22;;;;;;;10.72;7.20;;;;;;;3.58;81.98;101576.06;1782857;80;21268;-75
2021/05/10 02:03:49;;;;;;;12.50;7.67;;;;;;;3.60;82.01;101580.67;1771028;79;21100;-75
2021/05/10 02:06:17;;;;;;;11.05;7.60;;;;;;;3.61;82.03;101583.11;1799848;79;21183;-75
2021/05/10 02:08:47;;;;;;;8.88;6.78;;;;;;;3.64;82.09;101585.39;1795985;79;21617;-76
2021/05/10 02:11:14;;;;;;;9.93;6.60;;;;;;;3.64;82.13;101583.25;1780432;78;21160;-76
2021/05/10 02:13:43;;;;;;;8.60;6.72;;;;;;;3.59;82.09;101577.72;1775176;79;21273;-75
2021/05/10 02:16:11;;;;;;;9.45;6.70;;;;;;;3.51;82.22;101584.72;1784505;78;21179;-76
2021/05/10 02:18:40;;;;;;;11.48;7.75;;;;;;;3.48;82.33;101585.59;1794489;78;21161;-76
2021/05/10 02:21:08;;;;;;;11.83;7.78;;;;;;;3.48;82.42;101586.92;1791677;78;21144;-75
2021/05/10 02:23:37;;;;;;;14.25;8.13;;;;;;;3.50;82.48;101592.84;1782773;78;21185;-75
2021/05/10 02:26:07;;;;;;;12.15;8.08;;;;;;;3.52;82.49;101589.02;1807339;77;21176;-77
2021/05/10 02:28:36;;;;;;;12.93;8.50;;;;;;;3.53;82.49;101584.55;1809486;77;21165;-75
2021/05/10 02:31:05;;;;;;;13.60;8.93;;;;;;;3.53;82.45;101589.33;1805443;78;21160;-76
2021/05/10 02:33:34;;;;;;;12.33;7.87;;;;;;;3.56;82.43;101592.11;1811308;78;21164;-73
2021/05/10 02:36:02;;;;;;;15.15;10.00;;;;;;;3.57;82.38;101590.28;1783640;78;21250;-76
2021/05/10 02:38:29;;;;;;;12.50;8.15;;;;;;;3.57;82.39;101590.28;1799634;77;21163;-75
2021/05/10 02:40:58;;;;;;;13.28;7.83;;;;;;;3.60;82.36;101589.92;1811665;78;21609;-76
2021/05/10 02:43:26;;;;;;;11.18;8.05;;;;;;;3.61;82.34;101591.55;1786937;79;21181;-75
2021/05/10 02:45:54;;;;;;;13.58;8.90;;;;;;;3.65;82.24;101596.77;1777618;79;21149;-75
2021/05/10 02:48:22;;;;;;;13.28;9.33;;;;;;;3.67;82.16;101598.73;1799222;78;21207;-74
2021/05/10 02:50:51;;;;;;;12.90;8.63;;;;;;;3.68;82.12;101597.72;1780002;78;21657;-75
2021/05/10 02:53:19;;;;;;;11.43;7.70;;;;;;;3.69;82.22;101600.70;1807649;77;21179;-75
2021/05/10 02:55:47;;;;;;;14.38;8.38;;;;;;;3.71;82.29;101600.80;1799366;78;21596;-74
2021/05/10 02:58:15;;;;;;;13.22;9.08;;;;;;;3.78;82.41;101602.20;1806633;77;21584;-74
2021/05/10 03:00:42;;;;;;;11.45;8.33;;;;;;;3.88;82.42;101609.36;1777714;78;21132;-75
2021/05/10 03:03:10;;;;;;;13.25;8.88;;;;;;;3.97;82.42;101607.39;1778967;80;21271;-75
2021/05/10 03:05:40;;;;;;;12.78;7.78;;;;;;;4.05;82.40;101604.65;1770710;80;21168;-76
2021/05/10 03:08:07;;;;;;;11.28;7.62;;;;;;;4.15;82.32;101617.05;1763637;80;21179;-75
2021/05/10 03:10:36;;;;;;;11.48;8.03;;;;;;;4.22;82.27;101606.03;1767215;79;21168;-76
2021/05/10 03:13:05;;;;;;;11.30;8.78;;;;;;;4.31;82.22;101608.05;1782600;80;21196;-77
2021/05/10 03:15:33;;;;;;;11.63;7.70;;;;;;;4.39;82.18;101610.55;1782093;78;21195;-76
2021/05/10 03:18:01;;;;;;;12.75;8.13;;;;;;;4.49;82.11;101612.06;1808056;78;21619;-75
2021/05/10 03:20:31;;;;;;;13.05;8.80;;;;;;;4.59;82.09;101617.34;1777769;78;21572;-76
2021/05/10 03:23:02;;;;;;;14.83;8.90;;;;;;;4.69;82.10;101615.17;1806709;78;21152;-75
2021/05/10 03:25:30;;;;;;;14.40;8.80;;;;;;;4.80;82.05;101620.44;1797811;78;21184;-75
2021/05/10 03:27:59;;;;;;;13.75;9.15;;;;;;;4.91;81.94;101619.11;1785568;79;21620;-76
2021/05/10 03:30:27;;;;;;;17.57;9.68;;;;;;;5.01;81.89;101626.72;1770470;80;21617;-74
2021/05/10 03:32:54;;;;;;;14.78;9.53;;;;;;;5.08;81.86;101630.22;1792472;78;21216;-75
2021/05/10 03:35:22;;;;;;;14.98;9.33;;;;;;;5.18;81.83;101630.69;1810971;78;21283;-75
2021/05/10 03:37:52;;;;;;;16.17;9.88;;;;;;;5.27;81.80;101628.71;1802596;78;21643;-75
2021/05/10 03:40:20;;;;;;;15.40;9.50;;;;;;;5.31;81.79;101627.30;1791844;78;22239;-75
2021/05/10 03:42:48;;;;;;;17.27;9.83;;;;;;;5.36;81.87;101633.66;1783433;80;21605;-75
2021/05/10 03:45:16;;;;;;;14.28;9.43;;;;;;;5.46;81.86;101635.92;1797191;77;21227;-76
2021/05/10 03:47:44;;;;;;;16.20;10.15;;;;;;;5.53;81.75;101632.00;1818198;77;21169;-75
2021/05/10 03:50:18;;;;;;;13.50;9.08;;;;;;;5.58;81.71;101634.36;1768534;80;21267;-75
2021/05/10 03:52:47;;;;;;;14.70;9.95;;;;;;;5.64;81.74;101624.30;1753541;80;22141;-75
2021/05/10 03:55:18;;;;;;;14.90;9.30;;;;;;;5.68;81.63;101627.36;1786197;78;21136;-74
2021/05/10 03:57:45;;;;;;;13.25;9.45;;;;;;;5.76;81.58;101632.50;1765000;80;21164;-75
2021/05/10 04:00:15;;;;;;;14.95;9.95;;;;;;;5.92;81.48;101642.43;1776668;80;21185;-73
2021/05/10 04:02:44;;;;;;;11.30;9.38;;;;;;;6.04;81.31;101640.88;1785909;79;21199;-74
2021/05/10 04:08:11;;;;;;;13.48;8.83;;;;;;;6.33;81.15;101644.51;1768024;79;21693;-76
2021/05/10 04:15:56;;;;;;;14.13;10.00;;;;;;;6.69;80.88;101640.66;1767314;78;21675;-75
2021/05/10 04:18:24;;;;;;;14.25;9.40;;;;;;;6.79;80.86;101637.59;1804402;78;22159;-73
2021/05/10 04:20:52;;;;;;;12.20;9.38;;;;;;;6.94;80.85;101641.34;1796489;78;21133;-75
2021/05/10 04:23:20;;;;;;;14.28;9.65;;;;;;;7.07;80.72;101645.31;1768440;80;21612;-74
2021/05/10 04:25:50;;;;;;;11.88;9.75;;;;;;;7.21;80.59;101642.95;1785778;78;22253;-75
2021/05/10 04:28:22;;;;;;;12.75;9.30;;;;;;;7.33;80.42;101643.12;1764695;80;21133;-75
2021/05/10 04:30:51;;;;;;;13.45;9.78;;;;;;;7.45;80.27;101649.95;1765882;80;21315;-75
2021/05/10 04:33:30;;;;;;;11.95;9.40;;;;;;;7.58;80.16;101653.08;1789819;79;21281;-72
2021/05/10 04:35:58;;;;;;;12.07;8.55;;;;;;;7.71;80.02;101653.84;1783122;79;21175;-75
2021/05/10 04:38:26;;;;;;;12.03;9.63;;;;;;;7.90;79.80;101653.98;1515572;80;10000532;-75
2021/05/10 04:40:59;;;;;;;11.12;8.90;;;;;;;8.06;79.47;101659.30;1676913;81;21196;-78
2021/05/10 04:43:27;;;;;;;12.13;9.13;;;;;;;8.20;79.24;101660.35;1701906;81;21021;-76
2021/05/10 04:45:59;;;;;;;12.00;9.88;;;;;;;8.34;78.94;101666.41;1709586;81;21200;-76
2021/05/10 04:48:25;;;;;;;15.18;9.18;;;;;;;8.46;78.71;101663.91;1720371;81;21152;-77
2021/05/10 04:50:52;;;;;;;12.43;9.20;;;;;;;8.62;78.50;101670.53;1688924;81;21209;-77
2021/05/10 04:53:20;;;;;;;11.65;8.93;;;;;;;8.80;78.33;101669.80;1720228;81;21235;-77
2021/05/10 04:55:48;;;;;;;10.05;7.95;;;;;;;8.96;77.83;101666.58;1715806;80;21756;-76
2021/05/10 04:58:16;;;;;;;12.88;9.18;;;;;;;9.10;77.22;101668.61;1710942;81;21143;-76
2021/05/10 05:00:44;;;;;;;12.03;9.40;;;;;;;9.21;76.76;101663.05;1704699;80;21227;-76
2021/05/10 05:03:13;;;;;;;11.40;8.85;;;;;;;9.31;76.17;101658.03;1765358;79;21301;-76
2021/05/10 05:05:43;;;;;;;11.22;8.45;;;;;;;9.48;75.83;101664.95;1753432;80;21619;-77
2021/05/10 05:08:11;;;;;;;11.60;8.35;;;;;;;9.61;75.10;101664.80;1766945;79;21188;-76
2021/05/10 05:10:38;;;;;;;11.55;8.70;;;;;;;9.77;74.80;101672.69;1790552;75;21219;-77
2021/05/10 05:13:06;;;;;;;10.25;7.62;;;;;;;9.92;74.32;101665.64;1851354;77;21049;-77
2021/05/10 05:15:34;;;;;;;10.25;7.83;;;;;;;10.07;73.68;101674.89;1794966;78;21444;-77
2021/05/10 05:18:02;;;;;;;8.70;6.60;;;;;;;10.21;72.66;101668.03;1780664;79;21565;-76
2021/05/10 05:20:36;;;;;;;8.25;6.35;;;;;;;10.31;71.82;101671.80;1778800;80;21207;-77
2021/05/10 05:23:00;;;;;;;8.58;6.62;;;;;;;10.47;70.93;101669.53;1781968;78;21084;-76
2021/05/10 05:25:28;;;;;;;9.48;6.37;;;;;;;10.58;69.94;101667.39;1798284;78;21176;-77
2021/05/10 05:27:56;;;;;;;8.90;6.08;;;;;;;10.71;69.08;101659.16;1809012;78;22113;-77
2021/05/10 05:30:24;;;;;;;7.58;5.92;;;;;;;10.87;67.98;101663.55;1811483;78;21306;-76
2021/05/10 05:32:52;;;;;;;7.62;5.97;;;;;;;11.00;67.01;101662.79;1788409;78;21282;-76
2021/05/10 05:35:20;;;;;;;7.50;5.70;;;;;;;11.16;66.65;101663.15;1812929;78;21176;-77
2021/05/10 05:37:50;;;;;;;8.58;6.20;;;;;;;11.32;66.21;101662.94;1810553;77;21105;-77
2021/05/10 05:40:19;;;;;;;8.05;5.60;;;;;;;11.45;65.19;101659.51;1799015;78;21184;-78
2021/05/10 05:42:47;;;;;;;7.35;5.40;;;;;;;11.54;64.25;101665.81;1788219;78;21177;-76
2021/05/10 05:45:15;;;;;;;6.70;5.03;;;;;;;11.61;63.23;101661.95;1817204;78;21159;-78
2021/05/10 05:47:43;;;;;;;7.08;5.40;;;;;;;11.72;62.76;101661.66;1777352;79;21188;-77
2021/05/10 05:50:11;;;;;;;6.72;4.72;;;;;;;11.84;61.98;101661.09;1791850;79;21168;-77
2021/05/10 05:52:39;;;;;;;6.85;4.70;;;;;;;11.97;60.93;101662.69;1783271;79;21160;-77
2021/05/10 05:55:09;;;;;;;4.97;3.62;;;;;;;12.10;59.82;101662.92;1790861;79;21170;-76
2021/05/10 05:57:37;;;;;;;6.22;4.45;;;;;;;12.22;58.50;101658.34;1771384;79;21116;-78
2021/05/10 06:00:06;;;;;;;6.53;3.70;;;;;;;12.36;58.06;101657.50;1785268;79;21139;-76
2021/05/10 06:02:36;;;;;;;6.40;3.72;;;;;;;12.52;57.39;101665.28;1796185;79;21151;-75
2021/05/10 06:05:06;;;;;;;5.80;3.60;;;;;;;12.66;56.97;101658.00;1794917;79;22260;-73
2021/05/10 06:07:44;;;;;;;7.63;4.40;;;;;;;12.82;56.48;101652.89;1786037;78;21362;-75
2021/05/10 06:10:18;;;;;;;5.90;3.80;;;;;;;12.94;55.57;101655.48;1806006;78;21944;-73
2021/05/10 06:12:48;;;;;;;6.23;4.13;;;;;;;13.04;55.37;101656.44;1810018;78;21708;-75
2021/05/10 06:15:18;;;;;;;5.92;4.08;;;;;;;13.18;55.31;101656.90;1815887;78;21366;-75
2021/05/10 06:17:46;;;;;;;5.30;3.60;;;;;;;13.33;54.95;101653.66;1794762;78;21179;-76
2021/05/10 06:20:17;;;;;;;4.40;3.30;;;;;;;13.48;53.82;101654.37;1781338;78;21533;-74
2021/05/10 06:22:45;;;;;;;5.40;3.10;;;;;;;13.58;52.76;101655.30;1777518;78;21371;-73
2021/05/10 06:25:14;;;;;;;5.30;3.43;;;;;;;13.71;52.50;101656.80;1785739;79;21472;-72
2021/05/10 06:27:42;;;;;;;5.10;2.80;;;;;;;13.78;51.05;101653.38;1793436;79;21446;-75
2021/05/10 06:30:13;;;;;;;4.27;2.53;;;;;;;13.86;50.36;101654.03;1782099;78;22376;-75
2021/05/10 06:32:41;;;;;;;3.77;2.33;;;;;;;13.96;49.12;101654.13;1784050;79;21438;-74
2021/05/10 06:35:10;;;;;;;3.67;2.40;;;;;;;14.03;47.99;101651.52;1779088;80;21478;-75
2021/05/10 06:37:38;;;;;;;5.13;2.43;;;;;;;14.13;47.71;101657.52;1779191;80;21608;-71
2021/05/10 06:40:07;;;;;;;6.43;2.63;;;;;;;14.25;47.52;101660.87;1778222;79;21410;-71
2021/05/10 06:42:35;;;;;;;4.70;2.53;;;;;;;14.37;46.18;101650.48;1786142;78;21282;-71
2021/05/10 06:45:05;;;;;;;4.60;2.70;;;;;;;14.46;45.85;101652.98;1808649;77;21453;-71
2021/05/10 06:47:35;;;;;;;3.50;2.27;;;;;;;14.54;44.61;101652.54;1805736;78;21387;-71
2021/05/10 06:50:04;;;;;;;4.10;2.40;;;;;;;14.59;44.48;101650.44;1774827;78;21394;-72
2021/05/10 06:52:34;;;;;;;4.70;2.30;;;;;;;14.66;44.33;101651.84;1804345;77;21397;-72
2021/05/10 06:55:06;;;;;;;3.80;2.30;;;;;;;14.70;43.71;101651.59;1805817;77;22268;-74
2021/05/10 06:57:34;;;;;;;;;;;;;;;14.79;44.23;101654.63;1815129;77;21830;-77
2021/05/10 07:00:02;;;;;;;3.80;2.27;;;;;;;14.88;44.04;101657.11;1799752;77;20564;-76
2021/05/10 07:02:31;;;;;;;3.20;1.70;;;;;;;14.96;42.67;101656.61;1806937;77;21438;-74
2021/05/10 07:05:01;;;;;;;4.65;2.37;;;;;;;15.05;40.63;101654.26;1807944;78;21431;-77
2021/05/10 07:07:31;;;;;;;3.13;1.83;;;;;;;15.14;40.72;101651.36;1816596;77;21682;-74
2021/05/10 07:09:59;;;;;;;2.80;1.80;;;;;;;15.22;40.99;101645.47;1799316;78;21622;-73
2021/05/10 07:12:28;;;;;;;2.57;1.60;;;;;;;15.53;40.60;101646.97;1808407;77;21514;-73
2021/05/10 07:14:57;;;;;;;3.63;1.77;;;;;;;15.53;40.60;101646.97;1802399;77;21588;-74
2021/05/10 07:17:25;;;;;;;3.50;1.87;;;;;;;15.67;40.13;101648.67;1802157;77;22046;-73
2021/05/10 07:19:55;;;;;;;3.47;1.83;;;;;;;15.84;40.21;101649.80;1811761;77;21636;-73
2021/05/10 07:22:23;;;;;;;2.47;1.60;;;;;;;15.99;38.87;101640.92;1804553;78;21640;-73
2021/05/10 07:24:52;;;;;;;3.27;1.80;;;;;;;16.11;38.11;101642.84;1810282;78;21866;-74
2021/05/10 07:27:20;;;;;;;2.50;1.60;;;;;;;16.25;36.85;101637.73;1771468;78;21880;-74
2021/05/10 07:29:49;;;;;;;3.17;1.57;;;;;;;16.25;36.85;101637.73;1781043;78;21863;-74
2021/05/10 07:32:17;;;;;;;3.40;1.60;;;;;;;16.23;36.68;101622.38;1789955;79;21812;-72
2021/05/10 07:34:46;;;;;;;2.63;1.53;;;;;;;16.26;36.45;101629.39;1796357;79;21869;-74
2021/05/10 07:37:14;;;;;;;2.90;1.50;;;;;;;16.26;35.42;101623.19;1789998;79;22230;-73
2021/05/10 07:39:44;;;;;;;3.60;1.77;;;;;;;16.20;33.92;101624.27;1798222;78;21895;-75
2021/05/10 07:42:12;;;;;;;3.50;1.60;;;;;;;16.10;34.54;101619.67;1796759;79;21880;-75
2021/05/10 07:44:40;;;;;;;3.60;1.60;;;;;;;16.11;34.87;101622.63;1786443;79;21844;-73
2021/05/10 07:47:09;;;;;;;3.00;1.60;;;;;;;16.12;33.31;101624.23;1777326;80;21895;-70
2021/05/10 07:49:38;;;;;;;3.00;1.80;;;;;;;16.16;33.82;101613.21;1783250;80;21811;-71
2021/05/10 07:52:07;;;;;;;3.30;1.70;;;;;;;16.21;32.49;101611.05;1780929;79;21803;-71
2021/05/10 07:54:35;;;;;;;5.67;3.57;;;;;;;16.12;31.67;101609.41;1778412;80;21875;-72
2021/05/10 07:57:03;;;;;;;7.83;6.20;;;;;;;16.03;32.91;101606.45;1781751;80;21899;-75
2021/05/10 07:59:32;;;;;;;4.70;2.70;;;;;;;16.10;33.30;101602.95;1785045;80;22343;-77
2021/05/10 08:02:01;;;;;;;5.10;3.40;;;;;;;16.20;33.95;101605.39;1781848;78;21710;-74
2021/05/10 08:04:30;;;;;;;3.53;2.40;;;;;;;16.36;33.46;101597.03;1812526;78;21872;-73
2021/05/10 08:06:58;;;;;;;4.30;2.10;;;;;;;16.46;33.26;101594.07;1789250;78;21802;-71
2021/05/10 08:09:26;;;;;;;4.03;2.20;;;;;;;16.54;33.08;101598.91;1802666;78;21860;-71
2021/05/10 08:11:54;;;;;;;2.93;1.70;;;;;;;16.63;32.15;101604.02;1767583;80;21807;-71
2021/05/10 08:14:23;;;;;;;4.27;1.90;;;;;;;16.62;31.19;101603.22;1787103;79;21822;-73
2021/05/10 08:16:52;;;;;;;3.13;1.90;;;;;;;16.53;31.96;101607.54;1793994;78;21611;-69
2021/05/10 08:19:21;;;;;;;3.03;1.67;;;;;;;16.59;33.19;101598.37;1789385;78;21170;-70
2021/05/10 08:21:49;;;;;;;4.93;3.03;;;;;;;16.76;33.16;101599.44;1803674;78;21835;-71
2021/05/10 08:24:18;;;;;;;3.33;2.10;;;;;;;16.88;31.33;101592.42;1804575;78;22262;-70
2021/05/10 08:26:46;;;;;;;4.60;2.07;;;;;;;16.85;33.16;101586.22;1776533;80;22539;-69
2021/05/10 08:29:14;;;;;;;3.47;1.83;;;;;;;16.85;33.16;101586.22;1804851;78;21239;-71
2021/05/10 08:31:46;;;;;;;3.83;1.83;;;;;;;17.01;33.59;101587.80;1797921;77;21177;-72
2021/05/10 08:34:17;;;;;;;3.40;1.73;;;;;;;17.20;34.14;101585.81;1771638;80;21216;-71
2021/05/10 08:36:46;;;;;;;2.87;1.80;;;;;;;17.40;33.31;101583.02;1761390;80;21204;-72
2021/05/10 08:39:14;;;;;;;3.43;1.80;;;;;;;17.51;32.34;101587.30;1780423;80;21200;-84
2021/05/10 08:41:42;;;;;;;2.83;1.67;;;;;;;17.61;31.54;101571.59;1786350;78;21132;-80
2021/05/10 08:44:11;;;;;;;3.07;1.63;;;;;;;17.65;31.11;101563.72;1784699;80;21188;-77
2021/05/10 08:46:41;;;;;;;3.30;1.93;;;;;;;17.61;31.09;101559.42;1792519;78;21116;-74
2021/05/10 08:49:10;;;;;;;3.57;1.57;;;;;;;17.51;31.48;101561.64;1800368;78;21688;-74
2021/05/10 08:51:39;;;;;;;3.70;1.90;;;;;;;17.39;29.96;101561.70;1794888;78;21110;-76
2021/05/10 08:54:28;;;;;;;4.80;2.37;;;;;;;17.26;30.60;101559.88;1803653;77;21567;-75
2021/05/10 08:56:57;;;;;;;3.40;1.90;;;;;;;17.33;30.90;101554.97;1809680;77;21155;-76
2021/05/10 08:59:25;;;;;;;3.40;1.60;;;;;;;17.39;30.75;101549.01;1810806;77;21366;-74
2021/05/10 09:01:58;;;;;;;3.60;1.73;;;;;;;17.47;30.40;101553.01;1795428;77;21188;-74
2021/05/10 09:04:43;;;;;;;2.50;1.60;;;;;;;17.42;29.89;101549.80;1813295;77;21129;-74
2021/05/10 09:07:25;;;;;;;4.07;1.90;;;;;;;17.41;30.03;101550.09;1809469;78;21141;-75
2021/05/10 09:09:59;;;;;;;3.10;1.57;;;;;;;17.39;29.98;101546.86;1797570;78;21148;-76
2021/05/10 09:12:52;;;;;;;3.63;2.00;;;;;;;17.38;29.42;101546.60;1783374;79;21441;-74
2021/05/10 09:15:28;;;;;;;4.33;2.00;;;;;;;17.34;30.15;101537.70;1764586;80;21549;-76
2021/05/10 09:18:08;;;;;;;3.67;1.70;;;;;;;17.44;31.14;101537.36;1776246;78;21066;-79
2021/05/10 09:20:41;;;;;;;2.17;1.33;;;;;;;17.64;32.37;101538.61;1798598;79;21184;-78
2021/05/10 09:23:13;;;;;;;3.07;1.30;;;;;;;17.84;30.68;101529.58;1783995;79;21160;-77
2021/05/10 09:25:43;;;;;;;2.62;0.95;;;;;;;17.98;30.02;101530.54;1788578;80;21373;-77
2021/05/10 09:28:18;;;;;;;1.80;1.13;;;;;;;18.12;28.83;101525.28;1816937;78;21203;-77
2021/05/10 09:30:49;;;;;;;2.30;1.40;;;;;;;18.25;28.58;101527.33;1781114;80;21164;-78
2021/05/10 09:33:25;;;;;;;2.67;1.50;;;;;;;18.33;26.61;101521.03;1797100;78;21187;-77
2021/05/10 09:35:58;;;;;;;2.40;1.50;;;;;;;18.18;25.83;101524.70;1786676;79;21187;-77
2021/05/10 09:38:29;;;;;;;2.10;1.20;;;;;;;18.11;26.78;101526.94;1786162;80;21375;-77
2021/05/10 09:41:00;;;;;;;2.60;1.40;;;;;;;18.12;25.19;101522.58;1787400;79;21259;-77
2021/05/10 09:43:38;;;;;;;;;;;;;;;17.99;25.49;101529.98;1795044;78;21200;-78
2021/05/10 09:46:12;;;;;;;2.67;1.33;;;;;;;17.79;25.25;101523.66;1813556;78;20263;-77
2021/05/10 09:48:44;;;;;;;1.87;1.23;;;;;;;17.71;26.28;101519.38;1786552;80;21241;-77
2021/05/10 09:51:14;;;;;;;;;;;;;;;17.83;26.63;101511.73;1790908;78;21199;-76
2021/05/10 09:53:50;;;;;;;2.83;1.40;;;;;;;17.97;26.16;101511.91;1789564;78;20399;-75
2021/05/10 09:58:56;;;;;;;2.43;1.23;;;;;;;18.18;25.67;101503.06;1792021;78;21192;-74
2021/05/10 10:01:27;;;;;;;2.60;1.45;;;;;;;18.14;25.61;101499.33;1800691;78;21163;-77
2021/05/10 10:03:59;;;;;;;2.63;1.40;;;;;;;18.08;25.99;101489.64;1754717;80;21363;-75
2021/05/10 10:06:28;;;;;;;3.17;1.43;;;;;;;18.12;26.02;101489.33;1806264;78;21629;-75
2021/05/10 10:08:57;;;;;;;2.83;1.50;;;;;;;18.20;26.06;101488.73;1795441;78;21105;-76
2021/05/10 10:11:26;;;;;;;1.93;1.23;;;;;;;18.28;25.76;101480.78;1778349;78;21141;-74
2021/05/10 10:13:56;;;;;;;2.67;1.60;;;;;;;18.36;25.80;101482.08;1796095;78;21208;-75
2021/05/10 10:16:26;;;;;;;2.90;1.70;;;;;;;18.36;25.12;101469.91;1804465;78;21367;-76
2021/05/10 10:19:01;;;;;;;1.98;1.27;;;;;;;18.22;25.45;101473.81;1809640;78;21183;-74
2021/05/10 10:21:31;;;;;;;3.90;1.87;;;;;;;18.26;25.33;101475.39;1785362;78;21168;-72
2021/05/10 10:24:02;;;;;;;2.67;1.90;;;;;;;18.24;25.05;101474.89;1780890;78;21626;-72
2021/05/10 10:26:35;;;;;;;3.63;1.70;;;;;;;18.27;26.01;101467.56;1787490;78;21258;-71
2021/05/10 10:29:12;;;;;;;2.65;1.50;;;;;;;18.32;25.93;101474.25;1806806;78;21359;-70
2021/05/10 10:31:48;;;;;;;3.60;1.77;;;;;;;18.35;26.18;101469.62;1814586;78;21194;-71
2021/05/10 10:34:25;;;;;;;2.90;1.43;;;;;;;18.42;25.55;101467.37;1808994;78;21617;-75
2021/05/10 10:36:59;;;;;;;2.73;1.60;;;;;;;18.45;25.80;101459.23;1780686;78;21202;-74
2021/05/10 10:39:32;;;;;;;;;;;;;;;18.46;25.61;101461.67;1786113;79;21434;-74
2021/05/10 10:42:09;;;;;;;3.77;1.57;;;;;;;18.48;25.96;101451.91;1788476;78;21453;-74
2021/05/10 10:44:47;;;;;;;2.83;1.53;;;;;;;18.53;25.72;101452.41;1784959;79;21502;-74
2021/05/10 10:47:43;;;;;;;4.53;1.60;;;;;;;18.56;26.06;101447.75;1772069;79;21147;-74
2021/05/10 10:50:07;;;;;;;2.93;1.70;;;;;;;18.53;25.94;101443.74;1786208;79;21585;-72
2021/05/10 10:52:56;;;;;;;2.73;1.57;;;;;;;18.45;25.94;101442.46;1804377;78;21203;-74
2021/05/10 10:58:31;;;;;;;2.53;1.50;;;;;;;18.59;26.35;101430.42;1829207;77;22868;-71
2021/05/10 11:01:23;;;;;;;2.77;1.73;;;;;;;18.59;26.40;101432.30;1792513;78;21180;-71
2021/05/10 11:03:52;;;;;;;3.43;1.70;;;;;;;18.68;26.19;101430.01;1818107;77;21418;-71
2021/05/10 11:06:22;;;;;;;3.00;1.73;;;;;;;18.81;25.79;101425.81;1795957;79;21192;-70
2021/05/10 11:08:56;;;;;;;;;;;;;;;18.82;25.16;101423.91;1803742;78;21212;-69
2021/05/10 11:11:39;;;;;;;2.40;1.32;;;;;;;18.71;25.64;101421.86;1813841;77;20279;-73
2021/05/10 11:14:14;;;;;;;3.67;1.60;;;;;;;18.64;26.15;101416.00;1816287;78;21596;-71
2021/05/10 11:16:47;;;;;;;2.33;1.30;;;;;;;18.72;26.52;101405.38;1821907;78;21362;-73
2021/05/10 11:19:34;;;;;;;3.10;1.70;;;;;;;18.81;26.17;101403.36;1821314;78;21221;-75
2021/05/10 11:22:31;;;;;;;3.37;1.73;;;;;;;18.80;26.41;101401.21;1828531;78;21144;-73
2021/05/10 11:25:41;;;;;;;3.57;1.60;;;;;;;18.81;25.52;101400.11;1808208;77;21670;-74
2021/05/10 11:28:31;;;;;;;2.40;1.63;;;;;;;18.69;25.43;101389.70;1817589;78;21589;-73
2021/05/10 11:31:11;;;;;;;2.50;1.50;;;;;;;18.76;27.27;101393.42;1811610;78;22166;-74
2021/05/10 11:33:59;;;;;;;2.10;1.60;;;;;;;18.95;27.20;101387.48;1852044;77;21190;-73
2021/05/10 11:36:34;;;;;;;2.10;1.57;;;;;;;19.17;27.73;101386.05;1828500;77;21175;-74
2021/05/10 11:39:11;;;;;;;3.00;1.60;;;;;;;19.36;26.29;101380.06;1826006;77;21065;-72
2021/05/10 11:41:43;;;;;;;1.87;1.20;;;;;;;19.40;25.43;101382.42;1817794;78;21077;-73
2021/05/10 11:44:22;;;;;;;3.98;1.60;;;;;;;19.42;25.88;101375.38;1823185;78;26555;-73
2021/05/10 11:46:54;;;;;;;2.90;1.57;;;;;;;19.42;25.88;101375.38;1842235;75;21215;-74
2021/05/10 11:49:31;;;;;;;3.77;1.72;;;;;;;19.46;25.49;101375.03;1827736;77;21129;-71
2021/05/10 11:52:19;;;;;;;3.30;1.70;;;;;;;19.49;25.27;101366.87;1840547;75;22311;-71
2021/05/10 11:54:54;;;;;;;4.77;1.50;;;;;;;19.41;25.29;101369.16;1840667;77;21184;-71